Flight Track Log - Related Links

Times and Time Zones

All times are in EDT time to prevent confusion due to time zone crossing. See the EJA930 flight status page for this flight to view local times or setup timezone preferences in your user account.

Time Position Orientation Groundspeed Altitude Reporting Facility
EDT Latitude Longitude Course Direction KTS MPH feet Rate Location/Type
Tue 11:25:27 AM 40.8333 -74.1000 252° West 177 204 1,300  Level New York TRACON
Tue 11:26:27 AM 40.8167 -74.1667 252° West 196 226 1,600 1,526 Climbing New York TRACON
Tue 11:27:21 AM 40.8167 -74.2333 270° West 211 243 4,200 2,250 Climbing New York TRACON
Tue 11:28:27 AM 40.7667 -74.2667 207° Southwest 235 270 6,100 2,356 Climbing New York TRACON
Tue 11:30:04 AM 40.6617 -74.2756 184° South 273 314 10,600 2,658 Climbing New York Center
Tue 11:31:05 AM 40.5831 -74.2606 172° South 266 306 13,100 2,182 Climbing New York Center
Tue 11:32:05 AM 40.5125 -74.2486 173° South 278 320 15,000 2,034 Climbing New York Center
Tue 11:33:03 AM 40.4214 -74.2306 171° South 292 336 17,100 1,916 Climbing New York Center
Tue 11:34:04 AM 40.3494 -74.1969 160° South 303 349 18,800 1,415 Climbing New York Center
Tue 11:35:06 AM 40.2983 -74.0911 122° Southeast 303 349 20,000 1,261 Climbing New York Center
Tue 11:36:03 AM 40.2536 -73.9747 117° Southeast 325 374 21,300 1,641 Climbing New York Center
Tue 11:37:03 AM 40.2150 -73.8614 114° Southeast 340 391 23,200 1,835 Climbing New York Center
Tue 11:38:04 AM 40.1758 -73.7564 116° Southeast 333 383 25,000 1,900 Climbing New York Center
Tue 11:39:03 AM 40.1347 -73.6514 117° Southeast 328 377 27,000 1,950 Climbing New York Center
Tue 11:40:04 AM 40.0956 -73.5494 117° Southeast 328 377 28,900 1,000 Climbing New York Center
Tue 11:41:03 AM 40.0503 -73.4311 117° Southeast 342 394 29,000 50 Climbing New York Center
Tue 11:42:04 AM 39.9992 -73.2964 116° Southeast 379 436 29,000  Level New York Center
Tue 11:43:04 AM 39.9319 -73.1286 118° Southeast 447 514 29,000 655 Level New York Center
Tue 11:44:03 AM 39.8744 -72.9725 116° Southeast 478 550 30,300 1,412 Climbing New York Center
Tue 11:45:03 AM 39.8125 -72.8300 119° Southeast 478 550 31,800 1,438 Climbing New York Center
Tue 11:46:04 AM 39.7311 -72.7169 133° Southeast 436 502 33,200 1,328 Climbing New York Center
Tue 11:47:05 AM 39.6453 -72.6122 137° Southeast 431 496 34,500 1,109 Climbing New York Center
Tue 11:48:03 AM 39.5572 -72.4967 135° Southeast 438 504 35,400 966 Climbing New York Center
Tue 11:49:03 AM 39.4672 -72.3842 136° Southeast 445 512 36,400 992 Climbing New York Center
Tue 11:50:04 AM 39.3708 -72.2639 136° Southeast 460 529 37,400 992 Climbing New York Center
Tue 11:51:04 AM 39.2744 -72.1464 137° Southeast 473 544 38,400 992 Climbing New York Center
Tue 11:52:05 AM 39.1797 -72.0267 136° Southeast 478 550 39,400 1,008 Climbing New York Center
Tue 11:53:03 AM 39.0831 -71.9072 136° Southeast 478 550 40,400 814 Climbing New York Center
Tue 11:54:03 AM 38.9883 -71.7881 136° Southeast 478 550 41,000 298 Climbing New York Center
Tue 11:55:04 AM 38.8914 -71.6719 137° Southeast 473 544 41,000  Level New York Center
Tue 11:56:04 AM 38.7922 -71.5483 136° Southeast 480 552 41,000  Level New York Center
Tue 11:57:03 AM 38.6950 -71.4247 135° Southeast 487 560 41,000  Level New York Center
Tue 11:58:03 AM 38.5933 -71.3094 138° Southeast 493 567 41,000  Level New York Center
Tue 11:59:04 AM 38.4917 -71.1947 139° Southeast 493 567 41,000  Level New York Center
Tue 12:00:04 PM 38.3961 -71.0642 133° Southeast 493 567 41,000  Level New York Center
Tue 12:01:04 PM 38.2964 -70.9500 138° Southeast 493 567 41,000  Level New York Center
Tue 12:02:05 PM 38.1944 -70.8333 138° Southeast 487 560 41,000  Level New York Center
Tue 12:03:03 PM 38.0964 -70.7117 136° Southeast 487 560 41,000  Level New York Center
Tue 12:04:03 PM 37.9983 -70.5881 135° Southeast 487 560 41,000  Level New York Center
Tue 12:06:00 PM 37.7809 -70.4431 154° Southeast  Level FlightAware Approximate
Tue 12:13:00 PM 36.9910 -69.9561 155° Southeast  Level FlightAware Approximate
Tue 12:14:00 PM 36.8762 -69.8889 155° Southeast  Level FlightAware Approximate
Tue 12:15:00 PM 36.7623 -69.8196 154° Southeast  Level FlightAware Approximate
Tue 12:16:00 PM 36.6484 -69.7504 154° Southeast  Level FlightAware Approximate
Tue 12:17:00 PM 36.5344 -69.6813 154° Southeast  Level FlightAware Approximate
Tue 12:18:00 PM 36.4204 -69.6125 154° Southeast  Level FlightAware Approximate
Tue 12:19:00 PM 36.3064 -69.5438 154° Southeast  Level FlightAware Approximate
Tue 12:19:32 PM 36.1667 -69.4500 168° South 514 592 41,000  Level New York Oceanic (ODAPS)
Tue 12:20:00 PM 36.1923 -69.4753 154° Southeast  Level FlightAware Approximate
Tue 12:21:00 PM 36.0730 -69.4243 165° South  Level FlightAware Approximate
Tue 12:22:00 PM 35.9507 -69.3836 165° South  Level FlightAware Approximate
Tue 12:23:00 PM 35.8265 -69.3524 169° South  Level FlightAware Approximate
Tue 12:24:00 PM 35.7022 -69.3218 169° South  Level FlightAware Approximate
Tue 12:25:00 PM 35.5778 -69.2919 169° South  Level FlightAware Approximate
Tue 12:26:00 PM 35.1863 -69.1881 168° South 514 592 41,000  Level FlightAware Transoceanic
Tue 12:27:00 PM 35.0462 -69.1512 168° South 514 592 41,000  Level FlightAware Transoceanic
Tue 12:28:00 PM 34.9061 -69.1144 168° South 514 592 41,000  Level FlightAware Transoceanic
Tue 12:29:00 PM 34.7660 -69.0778 168° South 514 592 41,000  Level FlightAware Transoceanic
Tue 12:30:00 PM 34.6258 -69.0413 168° South 514 592 41,000  Level FlightAware Transoceanic
Tue 12:31:00 PM 34.4857 -69.0049 168° South 514 592 41,000  Level FlightAware Transoceanic
Tue 12:32:00 PM 34.3455 -68.9686 168° South 514 592 41,000  Level FlightAware Transoceanic
Tue 12:33:00 PM 34.2054 -68.9325 168° South 514 592 41,000  Level FlightAware Transoceanic
Tue 12:34:00 PM 34.0652 -68.8964 168° South 514 592 41,000  Level FlightAware Transoceanic
Tue 12:35:00 PM 33.9250 -68.8605 168° South 514 592 41,000  Level FlightAware Transoceanic
Tue 12:36:00 PM 33.7848 -68.8247 168° South 514 592 41,000  Level FlightAware Transoceanic
Tue 12:37:00 PM 33.6446 -68.7890 168° South 514 592 41,000  Level FlightAware Transoceanic
Tue 12:38:00 PM 33.5044 -68.7535 168° South 514 592 41,000  Level FlightAware Transoceanic
Tue 12:39:00 PM 33.3642 -68.7180 168° South 514 592 41,000  Level FlightAware Transoceanic
Tue 12:40:00 PM 33.2239 -68.6827 168° South 514 592 41,000  Level FlightAware Transoceanic
Tue 12:41:00 PM 33.0837 -68.6475 168° South 514 592 41,000  Level FlightAware Transoceanic
Tue 12:42:00 PM 32.9434 -68.6124 168° South 514 592 41,000  Level FlightAware Transoceanic
Tue 12:43:00 PM 32.8032 -68.5774 168° South 514 592 41,000  Level FlightAware Transoceanic
Tue 12:44:00 PM 32.6629 -68.5425 168° South 514 592 41,000  Level FlightAware Transoceanic
Tue 12:45:00 PM 32.5226 -68.5077 168° South 514 592 41,000  Level FlightAware Transoceanic
Tue 12:46:00 PM 32.3823 -68.4731 168° South 514 592 41,000  Level FlightAware Transoceanic
Tue 12:47:00 PM 32.2420 -68.4385 168° South 514 592 41,000  Level FlightAware Transoceanic
Tue 12:48:00 PM 32.1017 -68.4040 168° South 514 592 41,000  Level FlightAware Transoceanic
Tue 12:49:00 PM 31.9614 -68.3697 168° South 514 592 41,000  Level FlightAware Transoceanic
Tue 12:50:00 PM 31.8211 -68.3354 168° South 514 592 41,000  Level FlightAware Transoceanic
Tue 12:51:00 PM 31.6807 -68.3013 168° South 514 592 41,000  Level FlightAware Transoceanic
Tue 12:52:00 PM 31.5404 -68.2673 168° South 514 592 41,000  Level FlightAware Transoceanic
Tue 12:53:00 PM 31.4000 -68.2333 168° South 514 592 41,000  Level FlightAware Transoceanic
Tue 12:54:00 PM 31.2683 -68.2016 168° South 514 592 41,000  Level FlightAware Transoceanic
Tue 12:55:00 PM 31.1366 -68.1700 168° South 514 592 41,000  Level FlightAware Transoceanic
Tue 12:55:01 PM 31.4000 -68.2333 168° South 464 534 41,000  Level New York Oceanic (ODAPS)
Tue 12:56:00 PM 31.0049 -68.1385 168° South 514 592 41,000  Level FlightAware Transoceanic
Tue 12:57:00 PM 30.8732 -68.1070 168° South 514 592 41,000  Level FlightAware Transoceanic
Tue 12:58:00 PM 30.7414 -68.0757 168° South 514 592 41,000  Level FlightAware Transoceanic
Tue 12:59:00 PM 30.6097 -68.0444 168° South 514 592 41,000  Level FlightAware Transoceanic
Tue 01:00:00 PM 30.4780 -68.0132 168° South 514 592 41,000  Level FlightAware Transoceanic
Tue 01:01:00 PM 30.3751 -67.9889 168° South 464 534 41,000  Level FlightAware Transoceanic
Tue 01:02:00 PM 30.2469 -67.9587 169° South 464 534 41,000  Level FlightAware Transoceanic
Tue 01:03:00 PM 30.1188 -67.9286 169° South 464 534 41,000  Level FlightAware Transoceanic
Tue 01:04:00 PM 29.9906 -67.8986 169° South 464 534 41,000  Level FlightAware Transoceanic
Tue 01:05:00 PM 29.8625 -67.8686 169° South 464 534 41,000  Level FlightAware Transoceanic
Tue 01:06:00 PM 29.7343 -67.8388 169° South 464 534 41,000  Level FlightAware Transoceanic
Tue 01:07:00 PM 29.6061 -67.8090 169° South 464 534 41,000  Level FlightAware Transoceanic
Tue 01:08:00 PM 29.4779 -67.7792 169° South 464 534 41,000  Level FlightAware Transoceanic
Tue 01:09:00 PM 29.3497 -67.7496 169° South 464 534 41,000  Level FlightAware Transoceanic
Tue 01:10:00 PM 29.2215 -67.7200 169° South 464 534 41,000  Level FlightAware Transoceanic
Tue 01:11:00 PM 29.0933 -67.6905 169° South 464 534 41,000  Level FlightAware Transoceanic
Tue 01:12:00 PM 28.9651 -67.6611 169° South 464 534 41,000  Level FlightAware Transoceanic
Tue 01:13:00 PM 28.8369 -67.6317 169° South 464 534 41,000  Level FlightAware Transoceanic
Tue 01:14:00 PM 28.7087 -67.6024 169° South 464 534 41,000  Level FlightAware Transoceanic
Tue 01:15:00 PM 28.5804 -67.5732 169° South 464 534 41,000  Level FlightAware Transoceanic
Tue 01:16:00 PM 28.4522 -67.5441 169° South 464 534 41,000  Level FlightAware Transoceanic
Tue 01:17:00 PM 28.3240 -67.5150 169° South 464 534 41,000  Level FlightAware Transoceanic
Tue 01:18:00 PM 28.1957 -67.4860 169° South 464 534 41,000  Level FlightAware Transoceanic
Tue 01:19:00 PM 28.0674 -67.4571 169° South 464 534 41,000  Level FlightAware Transoceanic
Tue 01:20:00 PM 27.9392 -67.4282 169° South 464 534 41,000  Level FlightAware Transoceanic
Tue 01:21:00 PM 27.8109 -67.3994 169° South 464 534 41,000  Level FlightAware Transoceanic
Tue 01:22:00 PM 27.6826 -67.3707 169° South 464 534 41,000  Level FlightAware Transoceanic
Tue 01:23:00 PM 27.5544 -67.3420 169° South 464 534 41,000  Level FlightAware Transoceanic
Tue 01:24:00 PM 27.4261 -67.3135 169° South 464 534 41,000  Level FlightAware Transoceanic
Tue 01:25:00 PM 27.2978 -67.2849 169° South 464 534 41,000  Level FlightAware Transoceanic
Tue 01:26:00 PM 27.1695 -67.2565 169° South 464 534 41,000  Level FlightAware Transoceanic
Tue 01:27:00 PM 27.0412 -67.2281 169° South 464 534 41,000  Level FlightAware Transoceanic
Tue 01:28:00 PM 26.9129 -67.1998 169° South 464 534 41,000  Level FlightAware Transoceanic
Tue 01:28:07 PM 27.0833 -67.2500 169° South 523 602 41,000  Level New York Oceanic (ODAPS)
Tue 01:29:00 PM 26.7846 -67.1715 169° South 464 534 41,000  Level FlightAware Transoceanic
Tue 01:30:00 PM 26.6562 -67.1433 169° South 464 534 41,000  Level FlightAware Transoceanic
Tue 01:31:00 PM 26.5279 -67.1152 169° South 464 534 41,000  Level FlightAware Transoceanic
Tue 01:32:00 PM 26.3996 -67.0871 169° South 464 534 41,000  Level FlightAware Transoceanic
Tue 01:33:00 PM 26.2712 -67.0591 169° South 464 534 41,000  Level FlightAware Transoceanic
Tue 01:34:00 PM 26.1020 -67.0323 169° South 523 602 41,000  Level FlightAware Transoceanic
Tue 01:35:00 PM 25.9618 -67.0015 169° South 523 602 41,000  Level FlightAware Transoceanic
Tue 01:36:00 PM 25.8216 -66.9708 169° South 523 602 41,000  Level FlightAware Transoceanic
Tue 01:37:00 PM 25.6814 -66.9401 169° South 523 602 41,000  Level FlightAware Transoceanic
Tue 01:38:00 PM 25.5411 -66.9095 169° South 523 602 41,000  Level FlightAware Transoceanic
Tue 01:39:00 PM 25.4009 -66.8790 169° South 523 602 41,000  Level FlightAware Transoceanic
Tue 01:40:00 PM 25.2606 -66.8486 169° South 523 602 41,000  Level FlightAware Transoceanic
Tue 01:41:00 PM 25.1204 -66.8182 169° South 523 602 41,000  Level FlightAware Transoceanic
Tue 01:42:00 PM 24.9801 -66.7879 169° South 523 602 41,000  Level FlightAware Transoceanic
Tue 01:43:00 PM 24.8398 -66.7577 169° South 523 602 41,000  Level FlightAware Transoceanic
Tue 01:44:00 PM 24.6996 -66.7275 169° South 523 602 41,000  Level FlightAware Transoceanic
Tue 01:45:00 PM 24.5593 -66.6974 169° South 523 602 41,000  Level FlightAware Transoceanic
Tue 01:46:00 PM 24.4190 -66.6674 169° South 523 602 41,000  Level FlightAware Transoceanic
Tue 01:47:00 PM 24.2787 -66.6374 169° South 523 602 41,000  Level FlightAware Transoceanic
Tue 01:48:00 PM 24.1384 -66.6075 169° South 523 602 41,000  Level FlightAware Transoceanic
Tue 01:49:00 PM 23.9981 -66.5777 169° South 523 602 41,000  Level FlightAware Transoceanic
Tue 01:50:00 PM 23.8578 -66.5479 169° South 523 602 41,000  Level FlightAware Transoceanic
Tue 01:51:00 PM 23.7175 -66.5182 169° South 523 602 41,000  Level FlightAware Transoceanic
Tue 01:52:00 PM 23.5772 -66.4886 169° South 523 602 41,000  Level FlightAware Transoceanic
Tue 01:53:00 PM 23.4369 -66.4590 169° South 523 602 41,000  Level FlightAware Transoceanic
Tue 01:54:00 PM 23.2965 -66.4295 169° South 523 602 41,000  Level FlightAware Transoceanic
Tue 01:55:00 PM 23.1562 -66.4001 169° South 523 602 41,000  Level FlightAware Transoceanic
Tue 01:56:00 PM 23.0159 -66.3707 169° South 523 602 41,000  Level FlightAware Transoceanic
Tue 01:57:00 PM 22.8755 -66.3414 169° South 523 602 41,000  Level FlightAware Transoceanic
Tue 01:58:00 PM 22.7352 -66.3121 169° South 523 602 41,000  Level FlightAware Transoceanic
Tue 01:59:00 PM 22.5948 -66.2829 169° South 523 602 41,000  Level FlightAware Transoceanic
Tue 01:59:58 PM 22.9167 -66.3500 169° South 465 535 41,000  Level New York Oceanic (ODAPS)
Tue 02:00:00 PM 22.4545 -66.2538 169° South 523 602 41,000  Level FlightAware Transoceanic
Tue 02:01:00 PM 22.3141 -66.2247 169° South 523 602 41,000  Level FlightAware Transoceanic
Tue 02:02:00 PM 22.1737 -66.1956 169° South 523 602 41,000  Level FlightAware Transoceanic
Tue 02:03:00 PM 22.0333 -66.1667 169° South 523 602 41,000  Level FlightAware Transoceanic
Tue 02:04:00 PM 21.8917 -66.1374 169° South 523 602 41,000  Level FlightAware Transoceanic
Tue 02:05:00 PM 21.7500 -66.1082 169° South 523 602 41,000  Level FlightAware Transoceanic
Tue 02:06:00 PM 21.8917 -66.1374 169° South 465 535 41,000  Level FlightAware Transoceanic
Tue 02:07:00 PM 21.7500 -66.1082 169° South 465 535 41,000  Level FlightAware Transoceanic
Tue 02:08:00 PM 21.6083 -66.0791 169° South 465 535 41,000  Level FlightAware Transoceanic
Tue 02:08:45 PM 21.7000 -66.0833 163° South 460 529 41,000  Level San Juan Center
Tue 02:09:00 PM 21.4837 -66.0562 170° South  Level FlightAware Approximate
Tue 02:09:46 PM 21.5667 -66.0500 167° South 460 529 41,000  Level San Juan Center
Tue 02:10:00 PM 21.3591 -66.0333 170° South  Level FlightAware Approximate
Tue 02:10:46 PM 21.4500 -66.0333 172° South 460 529 41,000  Level San Juan Center
Tue 02:11:00 PM 21.3789 -66.0262 163° South  Level FlightAware Approximate
Tue 02:11:46 PM 21.3167 -66.0000 167° South 460 529 40,500  Level San Juan Center
Tue 02:12:00 PM 21.2582 -65.9858 163° South  Level FlightAware Approximate
Tue 02:12:47 PM 21.2000 -65.9667 165° South 410 472 39,200  Level San Juan Center
Tue 02:13:00 PM 21.1374 -65.9455 163° South  Level FlightAware Approximate
Tue 02:13:47 PM 21.0833 -65.9333 165° South 450 518 37,800  Level San Juan Center
Tue 02:14:00 PM 21.0167 -65.9053 163° South  Level FlightAware Approximate
Tue 02:14:47 PM 20.9500 -65.9000 167° South 430 495 36,400  Level San Juan Center
Tue 02:15:47 PM 20.8333 -65.8667 165° South 430 495 35,100 -1,339 Descending San Juan Center
Tue 02:16:48 PM 20.7167 -65.8500 172° South 470 541 33,700 -1,438 Descending San Juan Center
Tue 02:17:48 PM 20.5833 -65.8167 167° South 480 552 32,200 -1,550 Descending San Juan Center
Tue 02:18:48 PM 20.4333 -65.7833 168° South 510 587 30,600 -1,488 Descending San Juan Center
Tue 02:19:49 PM 20.3000 -65.7333 161° South 500 575 29,200 -1,488 Descending San Juan Center
Tue 02:20:49 PM 20.1667 -65.7167 173° South 500 575 27,600 -1,500 Descending San Juan Center
Tue 02:21:49 PM 20.0333 -65.6833 167° South 470 541 26,200 -1,388 Descending San Juan Center
Tue 02:22:50 PM 19.9000 -65.6500 167° South 460 529 24,800 -1,438 Descending San Juan Center
Tue 02:23:50 PM 19.7833 -65.6167 165° South 450 518 23,300 -1,450 Descending San Juan Center
Tue 02:24:50 PM 19.6500 -65.5833 167° South 460 529 21,900 -1,400 Descending San Juan Center
Tue 02:25:50 PM 19.5333 -65.5667 172° South 460 529 20,500 -1,339 Descending San Juan Center
Tue 02:26:51 PM 19.4167 -65.5333 165° South 450 518 19,200 -1,339 Descending San Juan Center
Tue 02:27:51 PM 19.2833 -65.5000 167° South 450 518 17,800 -1,350 Descending San Juan Center
Tue 02:28:51 PM 19.1667 -65.4833 172° South 450 518 16,500 -1,339 Descending San Juan Center
Tue 02:29:52 PM 19.0500 -65.4500 165° South 420 483 15,100 -1,289 Descending San Juan Center
Tue 02:30:52 PM 18.9333 -65.4167 165° South 420 483 13,900 -1,250 Descending San Juan Center
Tue 02:31:52 PM 18.8167 -65.4000 172° South 410 472 12,600 -1,240 Descending San Juan Center
Tue 02:32:53 PM 18.7167 -65.3667 162° South 400 460 11,400 -1,289 Descending San Juan Center
Tue 02:33:53 PM 18.6167 -65.3167 155° Southeast 360 414 10,000 -1,250 Descending San Juan Center
Tue 02:34:53 PM 18.5667 -65.2500 128° Southeast 280 322 8,900 -1,686 Descending San Juan Center
Tue 02:35:54 PM 18.4833 -65.2167 159° South 300 345 6,600 -1,736 Descending San Juan Center
Tue 02:36:54 PM 18.4167 -65.2000 167° South 280 322 5,400 -800 Descending San Juan Center
Tue 02:37:54 PM 18.3500 -65.1833 167° South 250 288 5,000 -843 Descending San Juan Center
Tue 02:38:55 PM 18.3167 -65.1333 125° Southeast 150 173 3,700 -1,339 Descending San Juan Center
Tue 02:39:55 PM 18.3167 -65.1000 90° East 120 138 2,300 -1,000 Descending San Juan Center
Tue 02:40:55 PM 18.3167 -65.0667 90° East 140 161 1,700 -645 Descending San Juan Center
Tue 02:41:56 PM 18.3333 -65.0333 62° Northeast 140 161 1,000 -694 Descending San Juan Center
Tue 02:42:56 PM 18.3333 -64.9833 90° East 140 161 300 -700 Descending San Juan Center

Login

Don't have an account? Register now (free) for customized features, flight alerts, and more!